createdAt,value
2023-04-11T00:00:05.533Z,14.94
2023-04-11T00:05:31.303Z,14.35
2023-04-11T00:11:18.273Z,14.73
2023-04-11T00:23:11.528Z,14.30
2023-04-11T00:42:08.003Z,14.15
2023-04-11T00:47:48.261Z,14.28
2023-04-11T00:53:49.699Z,14.77
2023-04-11T00:59:19.459Z,14.22
2023-04-11T01:04:56.412Z,14.81
2023-04-11T01:10:31.589Z,14.41
2023-04-11T01:16:22.831Z,14.30
2023-04-11T01:21:56.014Z,14.80
2023-04-11T01:27:10.315Z,14.54
2023-04-11T01:32:35.269Z,14.43
2023-04-11T01:38:24.242Z,14.41
2023-04-11T01:44:26.801Z,14.70
2023-04-11T01:49:32.164Z,14.51
2023-04-11T01:54:40.940Z,14.49
2023-04-11T02:00:04.488Z,14.57
2023-04-11T02:05:32.785Z,14.42
2023-04-11T02:11:38.823Z,13.88
2023-04-11T02:17:06.513Z,13.96
2023-04-11T02:22:50.035Z,14.31
2023-04-11T02:28:38.707Z,13.95
2023-04-11T02:34:30.251Z,14.07
2023-04-11T02:40:26.912Z,13.92
2023-04-11T02:45:47.732Z,14.21
2023-04-11T02:51:20.741Z,13.71
2023-04-11T02:56:50.711Z,13.87
2023-04-11T03:02:25.468Z,14.13
2023-04-11T03:08:30.759Z,13.85
2023-04-11T03:14:18.853Z,14.03
2023-04-11T03:31:48.005Z,14.07
2023-04-11T03:37:34.669Z,14.07
2023-04-11T03:43:07.901Z,14.04
2023-04-11T03:48:32.605Z,13.89
2023-04-11T03:54:23.516Z,14.10
2023-04-11T03:59:51.118Z,13.68
2023-04-11T04:05:28.706Z,14.21
2023-04-11T04:23:24.653Z,13.92
2023-04-11T04:29:39.575Z,14.22
2023-04-11T04:41:50.759Z,14.22
2023-04-11T04:53:35.159Z,14.06
2023-04-11T05:18:01.030Z,14.46
2023-04-11T05:30:21.071Z,13.94
2023-04-11T05:36:19.399Z,13.94
2023-04-11T05:42:15.036Z,13.99
2023-04-11T05:54:49.226Z,14.32
2023-04-11T05:59:58.196Z,14.69
2023-04-11T06:11:21.927Z,14.80
2023-04-11T06:17:16.646Z,14.90
2023-04-11T06:22:36.513Z,14.94
2023-04-11T06:28:08.515Z,14.65
2023-04-11T06:33:40.172Z,14.73
2023-04-11T06:40:07.960Z,15.29
2023-04-11T06:46:13.008Z,14.84
2023-04-11T06:52:13.556Z,15.53
2023-04-11T07:04:36.775Z,15.20
2023-04-11T07:36:53.591Z,15.84
2023-04-11T07:43:03.699Z,15.42
2023-04-11T07:55:03.456Z,16.08
2023-04-11T08:15:13.863Z,15.86
2023-04-11T10:08:50.930Z,17.28
2023-04-11T10:14:23.271Z,17.44
2023-04-11T10:20:30.137Z,17.28
2023-04-11T10:39:09.780Z,16.64
2023-04-11T11:37:01.300Z,16.34
2023-04-11T11:43:44.125Z,16.25
2023-04-11T12:09:06.259Z,14.39
2023-04-11T13:38:40.133Z,12.75
2023-04-11T14:06:45.688Z,12.87
2023-04-11T14:40:22.006Z,11.39
2023-04-11T14:45:22.155Z,11.19
2023-04-11T14:50:26.572Z,10.79
2023-04-11T14:55:31.514Z,11.41
2023-04-11T15:00:47.165Z,11.40
2023-04-11T15:05:52.299Z,11.47
2023-04-11T15:10:54.969Z,11.62
2023-04-11T15:15:56.246Z,11.30
2023-04-11T15:21:06.406Z,11.84
2023-04-11T15:26:22.768Z,11.94
2023-04-11T15:31:25.604Z,11.80
2023-04-11T15:36:26.026Z,11.99
2023-04-11T15:41:24.096Z,12.01
2023-04-11T15:46:27.609Z,12.00
2023-04-11T15:51:42.784Z,11.35
2023-04-11T15:56:43.437Z,11.41
2023-04-11T16:01:44.129Z,11.67
2023-04-11T16:06:43.743Z,11.62
2023-04-11T16:11:44.885Z,11.57
2023-04-11T16:16:46.116Z,11.39
2023-04-11T16:21:43.455Z,11.47
2023-04-11T16:26:42.127Z,11.57
2023-04-11T16:31:39.581Z,11.30
2023-04-11T16:36:36.680Z,11.23
2023-04-11T16:41:36.591Z,11.35
2023-04-11T16:46:44.163Z,11.00
2023-04-11T16:51:53.887Z,11.43
2023-04-11T16:56:51.401Z,11.64
2023-04-11T17:01:53.991Z,11.37
2023-04-11T17:06:51.476Z,11.47
2023-04-11T17:11:48.784Z,11.43
2023-04-11T17:16:46.047Z,11.77
2023-04-11T17:21:48.347Z,11.76
2023-04-11T17:26:53.050Z,11.62
2023-04-11T17:31:58.453Z,12.10
2023-04-11T17:37:04.149Z,12.12
2023-04-11T17:42:01.599Z,11.82
2023-04-11T17:46:58.895Z,12.38
2023-04-11T17:51:59.850Z,12.34
2023-04-11T17:57:03.346Z,12.45
2023-04-11T18:02:04.288Z,12.08
2023-04-11T18:07:02.579Z,12.61
2023-04-11T18:12:02.271Z,12.36
2023-04-11T18:17:04.780Z,12.65
2023-04-11T18:22:02.550Z,12.65
2023-04-11T18:27:00.367Z,12.70
2023-04-11T18:31:59.395Z,12.94
2023-04-11T18:36:59.148Z,13.10
2023-04-11T18:41:56.918Z,13.12
2023-04-11T18:46:56.873Z,12.77
2023-04-11T18:52:22.818Z,13.28
2023-04-11T18:57:20.076Z,13.05
2023-04-11T19:02:18.707Z,12.96
2023-04-11T19:07:17.899Z,12.98
2023-04-11T19:12:27.093Z,12.67
2023-04-11T19:22:51.392Z,12.84
2023-04-11T19:27:57.975Z,12.58
2023-04-11T19:32:58.082Z,12.76
2023-04-11T19:38:06.756Z,12.95
2023-04-11T19:43:08.078Z,13.01
2023-04-11T19:48:06.180Z,13.10
2023-04-11T19:53:21.715Z,12.59
2023-04-11T19:58:27.059Z,12.96
2023-04-11T20:03:25.746Z,13.11
2023-04-11T20:08:29.971Z,12.70
2023-04-11T20:13:29.635Z,12.87
2023-04-11T20:18:28.414Z,12.69
2023-04-11T20:23:25.874Z,12.99
2023-04-11T20:28:24.815Z,12.83
2023-04-11T20:33:22.279Z,12.78
2023-04-11T20:38:20.084Z,12.91
2023-04-11T20:43:17.453Z,12.76
2023-04-11T20:48:14.680Z,12.57
2023-04-11T20:53:15.466Z,12.55
2023-04-11T20:58:17.892Z,12.66
2023-04-11T21:03:16.385Z,12.70
2023-04-11T21:08:14.957Z,12.57
2023-04-11T21:13:16.027Z,12.58
2023-04-11T21:18:13.265Z,12.52
2023-04-11T21:23:11.494Z,12.62
2023-04-11T21:28:08.476Z,12.48
2023-04-11T21:33:06.471Z,12.47
2023-04-11T21:38:03.645Z,12.35
2023-04-11T21:43:00.718Z,12.51
2023-04-11T21:48:00.577Z,12.42
2023-04-11T21:52:58.710Z,12.65
2023-04-11T21:57:59.622Z,12.60
2023-04-11T22:02:56.720Z,12.64
2023-04-11T22:08:10.641Z,12.81
2023-04-11T22:13:07.508Z,13.00
2023-04-11T22:18:08.812Z,12.72
2023-04-11T22:23:08.670Z,13.05
2023-04-11T22:28:05.785Z,12.84
2023-04-11T22:33:03.640Z,12.73
2023-04-11T22:38:00.693Z,13.05
2023-04-11T22:42:58.460Z,12.54
2023-04-11T22:47:56.525Z,13.00
2023-04-11T22:52:54.251Z,12.96
2023-04-11T22:57:51.149Z,12.77
2023-04-11T23:02:49.062Z,13.09
2023-04-11T23:07:45.999Z,12.92
2023-04-11T23:12:43.913Z,12.91
2023-04-11T23:17:40.844Z,13.06
2023-04-11T23:22:38.570Z,12.81
2023-04-11T23:27:35.674Z,13.09
2023-04-11T23:32:33.275Z,13.10
2023-04-11T23:37:31.976Z,12.55
2023-04-11T23:42:29.836Z,12.98
2023-04-11T23:47:27.084Z,12.89
2023-04-11T23:52:24.188Z,13.06
2023-04-11T23:57:21.203Z,12.93
